sensor_id;sensor_type;location;lat;lon;timestamp;P1;P2;P0
60266;PMS5003;46125;61.360;-149.532;2023-09-18T00:01:57;0;0;
60266;PMS5003;46125;61.360;-149.532;2023-09-18T00:04:25;2;2;
60266;PMS5003;46125;61.360;-149.532;2023-09-18T00:06:59;1;0;
60266;PMS5003;46125;61.360;-149.532;2023-09-18T00:09:28;0;0;
60266;PMS5003;46125;61.360;-149.532;2023-09-18T00:11:57;0;0;
60266;PMS5003;46125;61.360;-149.532;2023-09-18T00:14:25;0;0;
60266;PMS5003;46125;61.360;-149.532;2023-09-18T00:16:54;0;0;
60266;PMS5003;46125;61.360;-149.532;2023-09-18T00:19:22;0;0;
60266;PMS5003;46125;61.360;-149.532;2023-09-18T00:21:51;0;0;
60266;PMS5003;46125;61.360;-149.532;2023-09-18T00:24:19;0;0;
60266;PMS5003;46125;61.360;-149.532;2023-09-18T00:26:48;0;0;
60266;PMS5003;46125;61.360;-149.532;2023-09-18T00:29:16;0;0;
60266;PMS5003;46125;61.360;-149.532;2023-09-18T00:31:45;0;0;
60266;PMS5003;46125;61.360;-149.532;2023-09-18T00:34:18;0;0;
60266;PMS5003;46125;61.360;-149.532;2023-09-18T00:36:52;0;0;
60266;PMS5003;46125;61.360;-149.532;2023-09-18T00:39:20;0;0;
60266;PMS5003;46125;61.360;-149.532;2023-09-18T00:41:49;0;0;
60266;PMS5003;46125;61.360;-149.532;2023-09-18T00:44:17;0;0;
60266;PMS5003;46125;61.360;-149.532;2023-09-18T00:46:46;0;0;
60266;PMS5003;46125;61.360;-149.532;2023-09-18T00:49:15;1;1;
60266;PMS5003;46125;61.360;-149.532;2023-09-18T00:51:45;0;0;
60266;PMS5003;46125;61.360;-149.532;2023-09-18T00:54:14;0;0;
60266;PMS5003;46125;61.360;-149.532;2023-09-18T00:56:45;1;0;
60266;PMS5003;46125;61.360;-149.532;2023-09-18T00:59:19;2;1;
60266;PMS5003;46125;61.360;-149.532;2023-09-18T01:01:48;0;0;
60266;PMS5003;46125;61.360;-149.532;2023-09-18T01:04:18;0;0;
60266;PMS5003;46125;61.360;-149.532;2023-09-18T01:06:48;0;0;
60266;PMS5003;46125;61.360;-149.532;2023-09-18T01:09:22;0;0;
60266;PMS5003;46125;61.360;-149.532;2023-09-18T01:11:59;0;0;
60266;PMS5003;46125;61.360;-149.532;2023-09-18T01:14:36;3;1;
60266;PMS5003;46125;61.360;-149.532;2023-09-18T01:17:09;1;1;
60266;PMS5003;46125;61.360;-149.532;2023-09-18T01:19:39;0;0;
60266;PMS5003;46125;61.360;-149.532;2023-09-18T01:22:09;0;0;
60266;PMS5003;46125;61.360;-149.532;2023-09-18T01:24:39;0;0;
60266;PMS5003;46125;61.360;-149.532;2023-09-18T01:27:08;0;0;
60266;PMS5003;46125;61.360;-149.532;2023-09-18T01:29:38;1;0;
60266;PMS5003;46125;61.360;-149.532;2023-09-18T01:32:11;0;0;
60266;PMS5003;46125;61.360;-149.532;2023-09-18T01:34:41;0;0;
60266;PMS5003;46125;61.360;-149.532;2023-09-18T01:37:13;0;0;
60266;PMS5003;46125;61.360;-149.532;2023-09-18T01:39:44;0;0;
60266;PMS5003;46125;61.360;-149.532;2023-09-18T01:42:14;0;0;
60266;PMS5003;46125;61.360;-149.532;2023-09-18T01:44:48;0;0;
60266;PMS5003;46125;61.360;-149.532;2023-09-18T01:47:22;0;0;
60266;PMS5003;46125;61.360;-149.532;2023-09-18T01:49:55;0;0;
60266;PMS5003;46125;61.360;-149.532;2023-09-18T01:52:23;0;0;
60266;PMS5003;46125;61.360;-149.532;2023-09-18T01:54:52;0;0;
60266;PMS5003;46125;61.360;-149.532;2023-09-18T01:57:25;0;0;
60266;PMS5003;46125;61.360;-149.532;2023-09-18T01:59:54;0;0;
60266;PMS5003;46125;61.360;-149.532;2023-09-18T02:02:22;64;58;
60266;PMS5003;46125;61.360;-149.532;2023-09-18T02:04:55;2;2;
60266;PMS5003;46125;61.360;-149.532;2023-09-18T02:07:24;13;11;
60266;PMS5003;46125;61.360;-149.532;2023-09-18T02:09:52;4;1;
60266;PMS5003;46125;61.360;-149.532;2023-09-18T02:12:21;0;0;
60266;PMS5003;46125;61.360;-149.532;2023-09-18T02:14:50;0;0;
60266;PMS5003;46125;61.360;-149.532;2023-09-18T02:17:18;0;0;
60266;PMS5003;46125;61.360;-149.532;2023-09-18T02:19:47;0;0;
60266;PMS5003;46125;61.360;-149.532;2023-09-18T02:22:20;0;0;
60266;PMS5003;46125;61.360;-149.532;2023-09-18T02:24:54;0;0;
60266;PMS5003;46125;61.360;-149.532;2023-09-18T02:27:22;0;0;
60266;PMS5003;46125;61.360;-149.532;2023-09-18T02:29:51;0;0;
60266;PMS5003;46125;61.360;-149.532;2023-09-18T02:32:19;0;0;
60266;PMS5003;46125;61.360;-149.532;2023-09-18T02:34:48;0;0;
60266;PMS5003;46125;61.360;-149.532;2023-09-18T02:37:21;1;0;
60266;PMS5003;46125;61.360;-149.532;2023-09-18T02:39:50;0;0;
60266;PMS5003;46125;61.360;-149.532;2023-09-18T02:42:18;0;0;
60266;PMS5003;46125;61.360;-149.532;2023-09-18T02:44:47;0;0;
60266;PMS5003;46125;61.360;-149.532;2023-09-18T02:47:15;0;0;
60266;PMS5003;46125;61.360;-149.532;2023-09-18T02:49:44;0;0;
60266;PMS5003;46125;61.360;-149.532;2023-09-18T02:52:12;2;0;
60266;PMS5003;46125;61.360;-149.532;2023-09-18T02:54:41;0;0;
60266;PMS5003;46125;61.360;-149.532;2023-09-18T02:57:09;0;0;
60266;PMS5003;46125;61.360;-149.532;2023-09-18T02:59:37;0;0;
60266;PMS5003;46125;61.360;-149.532;2023-09-18T03:02:06;0;0;
60266;PMS5003;46125;61.360;-149.532;2023-09-18T03:04:40;1;0;
60266;PMS5003;46125;61.360;-149.532;2023-09-18T03:07:08;3;0;
60266;PMS5003;46125;61.360;-149.532;2023-09-18T03:09:39;0;0;
60266;PMS5003;46125;61.360;-149.532;2023-09-18T03:12:08;0;0;
60266;PMS5003;46125;61.360;-149.532;2023-09-18T03:14:37;3;0;
60266;PMS5003;46125;61.360;-149.532;2023-09-18T03:17:05;0;0;
60266;PMS5003;46125;61.360;-149.532;2023-09-18T03:19:39;0;0;
60266;PMS5003;46125;61.360;-149.532;2023-09-18T03:22:07;5;4;
60266;PMS5003;46125;61.360;-149.532;2023-09-18T03:24:41;0;0;
60266;PMS5003;46125;61.360;-149.532;2023-09-18T03:27:09;0;0;
60266;PMS5003;46125;61.360;-149.532;2023-09-18T03:29:38;1;0;
60266;PMS5003;46125;61.360;-149.532;2023-09-18T03:32:06;0;0;
60266;PMS5003;46125;61.360;-149.532;2023-09-18T03:34:35;0;0;
60266;PMS5003;46125;61.360;-149.532;2023-09-18T03:37:03;0;0;
60266;PMS5003;46125;61.360;-149.532;2023-09-18T03:39:32;0;0;
60266;PMS5003;46125;61.360;-149.532;2023-09-18T03:42:06;1;1;
60266;PMS5003;46125;61.360;-149.532;2023-09-18T03:44:41;2;0;
60266;PMS5003;46125;61.360;-149.532;2023-09-18T03:47:10;0;0;
60266;PMS5003;46125;61.360;-149.532;2023-09-18T03:49:38;0;0;
60266;PMS5003;46125;61.360;-149.532;2023-09-18T03:52:07;1;0;
60266;PMS5003;46125;61.360;-149.532;2023-09-18T03:54:35;1;1;
60266;PMS5003;46125;61.360;-149.532;2023-09-18T03:57:04;2;2;
60266;PMS5003;46125;61.360;-149.532;2023-09-18T03:59:32;0;0;
60266;PMS5003;46125;61.360;-149.532;2023-09-18T04:02:01;3;2;
60266;PMS5003;46125;61.360;-149.532;2023-09-18T04:04:29;1;1;
60266;PMS5003;46125;61.360;-149.532;2023-09-18T04:06:58;1;1;
60266;PMS5003;46125;61.360;-149.532;2023-09-18T04:09:26;1;0;
60266;PMS5003;46125;61.360;-149.532;2023-09-18T04:12:00;3;1;
60266;PMS5003;46125;61.360;-149.532;2023-09-18T04:14:38;2;0;
60266;PMS5003;46125;61.360;-149.532;2023-09-18T04:17:08;5;3;
60266;PMS5003;46125;61.360;-149.532;2023-09-18T04:19:36;4;3;
60266;PMS5003;46125;61.360;-149.532;2023-09-18T04:22:05;0;0;
60266;PMS5003;46125;61.360;-149.532;2023-09-18T04:24:34;4;1;
60266;PMS5003;46125;61.360;-149.532;2023-09-18T04:27:02;1;1;
60266;PMS5003;46125;61.360;-149.532;2023-09-18T04:29:31;1;1;
60266;PMS5003;46125;61.360;-149.532;2023-09-18T04:31:59;0;0;
60266;PMS5003;46125;61.360;-149.532;2023-09-18T04:34:27;3;1;
60266;PMS5003;46125;61.360;-149.532;2023-09-18T04:36:56;0;0;
60266;PMS5003;46125;61.360;-149.532;2023-09-18T04:39:24;0;0;
60266;PMS5003;46125;61.360;-149.532;2023-09-18T04:41:53;3;1;
60266;PMS5003;46125;61.360;-149.532;2023-09-18T04:44:21;0;0;
60266;PMS5003;46125;61.360;-149.532;2023-09-18T04:46:50;0;0;
60266;PMS5003;46125;61.360;-149.532;2023-09-18T04:49:18;1;0;
60266;PMS5003;46125;61.360;-149.532;2023-09-18T04:51:47;2;0;
60266;PMS5003;46125;61.360;-149.532;2023-09-18T04:54:16;1;0;
60266;PMS5003;46125;61.360;-149.532;2023-09-18T04:56:44;0;0;
60266;PMS5003;46125;61.360;-149.532;2023-09-18T04:59:18;9;5;
60266;PMS5003;46125;61.360;-149.532;2023-09-18T05:01:52;9;7;
60266;PMS5003;46125;61.360;-149.532;2023-09-18T05:04:25;10;7;
60266;PMS5003;46125;61.360;-149.532;2023-09-18T05:06:59;9;2;
60266;PMS5003;46125;61.360;-149.532;2023-09-18T05:09:28;2;2;
60266;PMS5003;46125;61.360;-149.532;2023-09-18T05:11:56;1;1;
60266;PMS5003;46125;61.360;-149.532;2023-09-18T05:14:25;4;4;
60266;PMS5003;46125;61.360;-149.532;2023-09-18T05:17:00;57;39;
60266;PMS5003;46125;61.360;-149.532;2023-09-18T05:19:30;61;43;
60266;PMS5003;46125;61.360;-149.532;2023-09-18T05:21:59;41;27;
60266;PMS5003;46125;61.360;-149.532;2023-09-18T05:24:27;44;33;
60266;PMS5003;46125;61.360;-149.532;2023-09-18T05:26:56;35;31;
60266;PMS5003;46125;61.360;-149.532;2023-09-18T05:29:24;22;21;
60266;PMS5003;46125;61.360;-149.532;2023-09-18T05:31:52;11;11;
60266;PMS5003;46125;61.360;-149.532;2023-09-18T05:34:20;10;9;
60266;PMS5003;46125;61.360;-149.532;2023-09-18T05:36:49;9;8;
60266;PMS5003;46125;61.360;-149.532;2023-09-18T05:39:18;6;6;
60266;PMS5003;46125;61.360;-149.532;2023-09-18T05:41:53;5;5;
60266;PMS5003;46125;61.360;-149.532;2023-09-18T05:44:27;3;1;
60266;PMS5003;46125;61.360;-149.532;2023-09-18T05:46:55;1;1;
60266;PMS5003;46125;61.360;-149.532;2023-09-18T05:49:28;0;0;
60266;PMS5003;46125;61.360;-149.532;2023-09-18T05:51:56;0;0;
60266;PMS5003;46125;61.360;-149.532;2023-09-18T05:54:30;1;1;
60266;PMS5003;46125;61.360;-149.532;2023-09-18T05:57:04;0;0;
60266;PMS5003;46125;61.360;-149.532;2023-09-18T05:59:32;1;1;
60266;PMS5003;46125;61.360;-149.532;2023-09-18T06:02:06;0;0;
60266;PMS5003;46125;61.360;-149.532;2023-09-18T06:04:34;2;2;
60266;PMS5003;46125;61.360;-149.532;2023-09-18T06:07:03;0;0;
60266;PMS5003;46125;61.360;-149.532;2023-09-18T06:09:31;0;0;
60266;PMS5003;46125;61.360;-149.532;2023-09-18T06:12:00;0;0;
60266;PMS5003;46125;61.360;-149.532;2023-09-18T06:14:28;0;0;
60266;PMS5003;46125;61.360;-149.532;2023-09-18T06:16:56;0;0;
60266;PMS5003;46125;61.360;-149.532;2023-09-18T06:19:26;1;0;
60266;PMS5003;46125;61.360;-149.532;2023-09-18T06:21:54;5;4;
60266;PMS5003;46125;61.360;-149.532;2023-09-18T06:24:28;23;20;
60266;PMS5003;46125;61.360;-149.532;2023-09-18T06:26:56;9;7;
60266;PMS5003;46125;61.360;-149.532;2023-09-18T06:29:26;12;11;
60266;PMS5003;46125;61.360;-149.532;2023-09-18T06:31:54;1;1;
60266;PMS5003;46125;61.360;-149.532;2023-09-18T06:34:23;4;1;
60266;PMS5003;46125;61.360;-149.532;2023-09-18T06:36:56;0;0;
60266;PMS5003;46125;61.360;-149.532;2023-09-18T06:39:25;4;0;
60266;PMS5003;46125;61.360;-149.532;2023-09-18T06:41:53;1;0;
60266;PMS5003;46125;61.360;-149.532;2023-09-18T06:44:26;4;4;
60266;PMS5003;46125;61.360;-149.532;2023-09-18T06:46:55;2;0;
60266;PMS5003;46125;61.360;-149.532;2023-09-18T06:49:24;0;0;
60266;PMS5003;46125;61.360;-149.532;2023-09-18T06:51:53;0;0;
60266;PMS5003;46125;61.360;-149.532;2023-09-18T06:54:22;0;0;
60266;PMS5003;46125;61.360;-149.532;2023-09-18T06:56:51;0;0;
60266;PMS5003;46125;61.360;-149.532;2023-09-18T06:59:21;0;0;
60266;PMS5003;46125;61.360;-149.532;2023-09-18T07:01:49;1;0;
60266;PMS5003;46125;61.360;-149.532;2023-09-18T07:04:18;0;0;
60266;PMS5003;46125;61.360;-149.532;2023-09-18T07:06:47;1;0;
60266;PMS5003;46125;61.360;-149.532;2023-09-18T07:09:16;0;0;
60266;PMS5003;46125;61.360;-149.532;2023-09-18T07:11:45;0;0;
60266;PMS5003;46125;61.360;-149.532;2023-09-18T07:14:13;0;0;
60266;PMS5003;46125;61.360;-149.532;2023-09-18T07:16:42;0;0;
60266;PMS5003;46125;61.360;-149.532;2023-09-18T07:19:10;0;0;
60266;PMS5003;46125;61.360;-149.532;2023-09-18T07:21:40;1;1;
60266;PMS5003;46125;61.360;-149.532;2023-09-18T07:24:08;0;0;
60266;PMS5003;46125;61.360;-149.532;2023-09-18T07:26:44;0;0;
60266;PMS5003;46125;61.360;-149.532;2023-09-18T07:29:13;1;1;
60266;PMS5003;46125;61.360;-149.532;2023-09-18T07:31:42;0;0;
60266;PMS5003;46125;61.360;-149.532;2023-09-18T07:34:11;0;0;
60266;PMS5003;46125;61.360;-149.532;2023-09-18T07:36:42;1;1;
60266;PMS5003;46125;61.360;-149.532;2023-09-18T07:39:11;0;0;
60266;PMS5003;46125;61.360;-149.532;2023-09-18T07:41:39;0;0;
60266;PMS5003;46125;61.360;-149.532;2023-09-18T07:44:08;0;0;
60266;PMS5003;46125;61.360;-149.532;2023-09-18T07:46:36;0;0;
60266;PMS5003;46125;61.360;-149.532;2023-09-18T07:49:05;0;0;
60266;PMS5003;46125;61.360;-149.532;2023-09-18T07:51:33;2;0;
60266;PMS5003;46125;61.360;-149.532;2023-09-18T07:54:02;2;1;
60266;PMS5003;46125;61.360;-149.532;2023-09-18T07:56:34;0;0;
60266;PMS5003;46125;61.360;-149.532;2023-09-18T07:59:02;0;0;
60266;PMS5003;46125;61.360;-149.532;2023-09-18T08:01:31;0;0;
60266;PMS5003;46125;61.360;-149.532;2023-09-18T08:03:59;0;0;
60266;PMS5003;46125;61.360;-149.532;2023-09-18T08:06:28;0;0;
60266;PMS5003;46125;61.360;-149.532;2023-09-18T08:08:56;0;0;
60266;PMS5003;46125;61.360;-149.532;2023-09-18T08:11:26;1;0;
60266;PMS5003;46125;61.360;-149.532;2023-09-18T08:13:55;2;0;
60266;PMS5003;46125;61.360;-149.532;2023-09-18T08:16:23;0;0;
60266;PMS5003;46125;61.360;-149.532;2023-09-18T08:18:52;2;1;
60266;PMS5003;46125;61.360;-149.532;2023-09-18T08:21:20;1;0;
60266;PMS5003;46125;61.360;-149.532;2023-09-18T08:23:49;0;0;
60266;PMS5003;46125;61.360;-149.532;2023-09-18T08:26:18;0;0;
60266;PMS5003;46125;61.360;-149.532;2023-09-18T08:28:47;1;0;
60266;PMS5003;46125;61.360;-149.532;2023-09-18T08:31:16;0;0;
60266;PMS5003;46125;61.360;-149.532;2023-09-18T08:33:44;0;0;
60266;PMS5003;46125;61.360;-149.532;2023-09-18T08:36:18;1;1;
60266;PMS5003;46125;61.360;-149.532;2023-09-18T08:38:46;0;0;
60266;PMS5003;46125;61.360;-149.532;2023-09-18T08:41:16;0;0;
60266;PMS5003;46125;61.360;-149.532;2023-09-18T08:43:45;0;0;
60266;PMS5003;46125;61.360;-149.532;2023-09-18T08:46:16;1;0;
60266;PMS5003;46125;61.360;-149.532;2023-09-18T08:48:45;0;0;
60266;PMS5003;46125;61.360;-149.532;2023-09-18T08:51:15;0;0;
60266;PMS5003;46125;61.360;-149.532;2023-09-18T08:53:45;2;0;
60266;PMS5003;46125;61.360;-149.532;2023-09-18T08:56:14;2;1;
60266;PMS5003;46125;61.360;-149.532;2023-09-18T08:58:44;0;0;
60266;PMS5003;46125;61.360;-149.532;2023-09-18T09:01:13;2;0;
60266;PMS5003;46125;61.360;-149.532;2023-09-18T09:03:42;3;0;
60266;PMS5003;46125;61.360;-149.532;2023-09-18T09:06:13;0;0;
60266;PMS5003;46125;61.360;-149.532;2023-09-18T09:08:41;0;0;
60266;PMS5003;46125;61.360;-149.532;2023-09-18T09:11:10;0;0;
60266;PMS5003;46125;61.360;-149.532;2023-09-18T09:13:38;0;0;
60266;PMS5003;46125;61.360;-149.532;2023-09-18T09:16:07;1;0;
60266;PMS5003;46125;61.360;-149.532;2023-09-18T09:18:47;0;0;
60266;PMS5003;46125;61.360;-149.532;2023-09-18T09:21:17;1;0;
60266;PMS5003;46125;61.360;-149.532;2023-09-18T09:23:47;0;0;
60266;PMS5003;46125;61.360;-149.532;2023-09-18T09:26:18;0;0;
60266;PMS5003;46125;61.360;-149.532;2023-09-18T09:28:47;1;0;
60266;PMS5003;46125;61.360;-149.532;2023-09-18T09:31:26;0;0;
60266;PMS5003;46125;61.360;-149.532;2023-09-18T09:34:01;1;1;
60266;PMS5003;46125;61.360;-149.532;2023-09-18T09:36:30;0;0;
60266;PMS5003;46125;61.360;-149.532;2023-09-18T09:39:00;0;0;
60266;PMS5003;46125;61.360;-149.532;2023-09-18T09:41:31;0;0;
60266;PMS5003;46125;61.360;-149.532;2023-09-18T09:44:00;0;0;
60266;PMS5003;46125;61.360;-149.532;2023-09-18T09:46:28;0;0;
60266;PMS5003;46125;61.360;-149.532;2023-09-18T09:48:58;0;0;
60266;PMS5003;46125;61.360;-149.532;2023-09-18T09:51:27;1;1;
60266;PMS5003;46125;61.360;-149.532;2023-09-18T09:53:56;0;0;
60266;PMS5003;46125;61.360;-149.532;2023-09-18T09:56:42;0;0;
60266;PMS5003;46125;61.360;-149.532;2023-09-18T09:59:12;1;0;
60266;PMS5003;46125;61.360;-149.532;2023-09-18T10:01:42;1;0;
60266;PMS5003;46125;61.360;-149.532;2023-09-18T10:04:13;0;0;
60266;PMS5003;46125;61.360;-149.532;2023-09-18T10:06:44;0;0;
60266;PMS5003;46125;61.360;-149.532;2023-09-18T10:09:19;0;0;
60266;PMS5003;46125;61.360;-149.532;2023-09-18T10:11:51;0;0;
60266;PMS5003;46125;61.360;-149.532;2023-09-18T10:14:27;0;0;
60266;PMS5003;46125;61.360;-149.532;2023-09-18T10:16:59;0;0;
60266;PMS5003;46125;61.360;-149.532;2023-09-18T10:19:32;0;0;
60266;PMS5003;46125;61.360;-149.532;2023-09-18T10:22:10;1;0;
60266;PMS5003;46125;61.360;-149.532;2023-09-18T10:24:46;1;0;
60266;PMS5003;46125;61.360;-149.532;2023-09-18T10:27:17;0;0;
60266;PMS5003;46125;61.360;-149.532;2023-09-18T10:29:47;1;0;
60266;PMS5003;46125;61.360;-149.532;2023-09-18T10:32:19;2;1;
60266;PMS5003;46125;61.360;-149.532;2023-09-18T10:34:48;0;0;
60266;PMS5003;46125;61.360;-149.532;2023-09-18T10:37:17;1;0;
60266;PMS5003;46125;61.360;-149.532;2023-09-18T10:39:45;0;0;
60266;PMS5003;46125;61.360;-149.532;2023-09-18T10:42:15;0;0;
60266;PMS5003;46125;61.360;-149.532;2023-09-18T10:44:46;0;0;
60266;PMS5003;46125;61.360;-149.532;2023-09-18T10:47:14;0;0;
60266;PMS5003;46125;61.360;-149.532;2023-09-18T10:49:43;0;0;
60266;PMS5003;46125;61.360;-149.532;2023-09-18T10:52:12;1;1;
60266;PMS5003;46125;61.360;-149.532;2023-09-18T10:54:41;1;1;
60266;PMS5003;46125;61.360;-149.532;2023-09-18T10:57:11;0;0;
60266;PMS5003;46125;61.360;-149.532;2023-09-18T10:59:44;0;0;
60266;PMS5003;46125;61.360;-149.532;2023-09-18T11:02:14;0;0;
60266;PMS5003;46125;61.360;-149.532;2023-09-18T11:04:43;0;0;
60266;PMS5003;46125;61.360;-149.532;2023-09-18T11:07:19;0;0;
60266;PMS5003;46125;61.360;-149.532;2023-09-18T11:09:48;1;0;
60266;PMS5003;46125;61.360;-149.532;2023-09-18T11:12:17;2;0;
60266;PMS5003;46125;61.360;-149.532;2023-09-18T11:14:47;1;0;
60266;PMS5003;46125;61.360;-149.532;2023-09-18T11:17:33;0;0;
60266;PMS5003;46125;61.360;-149.532;2023-09-18T11:20:03;0;0;
60266;PMS5003;46125;61.360;-149.532;2023-09-18T11:22:34;0;0;
60266;PMS5003;46125;61.360;-149.532;2023-09-18T11:25:40;0;0;
60266;PMS5003;46125;61.360;-149.532;2023-09-18T11:28:13;0;0;
60266;PMS5003;46125;61.360;-149.532;2023-09-18T11:30:48;1;1;
60266;PMS5003;46125;61.360;-149.532;2023-09-18T11:33:29;0;0;
60266;PMS5003;46125;61.360;-149.532;2023-09-18T11:36:01;1;0;
60266;PMS5003;46125;61.360;-149.532;2023-09-18T11:38:31;1;1;
60266;PMS5003;46125;61.360;-149.532;2023-09-18T11:41:00;2;2;
60266;PMS5003;46125;61.360;-149.532;2023-09-18T11:43:46;2;1;
60266;PMS5003;46125;61.360;-149.532;2023-09-18T11:46:17;0;0;
60266;PMS5003;46125;61.360;-149.532;2023-09-18T11:48:47;1;0;
60266;PMS5003;46125;61.360;-149.532;2023-09-18T11:51:22;0;0;
60266;PMS5003;46125;61.360;-149.532;2023-09-18T11:53:53;0;0;
60266;PMS5003;46125;61.360;-149.532;2023-09-18T11:56:23;0;0;
60266;PMS5003;46125;61.360;-149.532;2023-09-18T11:58:51;3;0;
60266;PMS5003;46125;61.360;-149.532;2023-09-18T12:01:20;0;0;
60266;PMS5003;46125;61.360;-149.532;2023-09-18T12:03:53;0;0;
60266;PMS5003;46125;61.360;-149.532;2023-09-18T12:06:21;0;0;
60266;PMS5003;46125;61.360;-149.532;2023-09-18T12:08:51;0;0;
60266;PMS5003;46125;61.360;-149.532;2023-09-18T12:11:20;0;0;
60266;PMS5003;46125;61.360;-149.532;2023-09-18T12:13:50;1;1;
60266;PMS5003;46125;61.360;-149.532;2023-09-18T12:16:19;0;0;
60266;PMS5003;46125;61.360;-149.532;2023-09-18T12:18:48;2;0;
60266;PMS5003;46125;61.360;-149.532;2023-09-18T12:21:16;0;0;
60266;PMS5003;46125;61.360;-149.532;2023-09-18T12:23:45;0;0;
60266;PMS5003;46125;61.360;-149.532;2023-09-18T12:26:14;0;0;
60266;PMS5003;46125;61.360;-149.532;2023-09-18T12:28:44;0;0;
60266;PMS5003;46125;61.360;-149.532;2023-09-18T12:31:13;0;0;
60266;PMS5003;46125;61.360;-149.532;2023-09-18T12:33:43;0;0;
60266;PMS5003;46125;61.360;-149.532;2023-09-18T12:36:11;0;0;
60266;PMS5003;46125;61.360;-149.532;2023-09-18T12:38:41;0;0;
60266;PMS5003;46125;61.360;-149.532;2023-09-18T12:41:10;0;0;
60266;PMS5003;46125;61.360;-149.532;2023-09-18T12:43:39;0;0;
60266;PMS5003;46125;61.360;-149.532;2023-09-18T12:46:09;0;0;
60266;PMS5003;46125;61.360;-149.532;2023-09-18T12:48:39;0;0;
60266;PMS5003;46125;61.360;-149.532;2023-09-18T12:51:08;0;0;
60266;PMS5003;46125;61.360;-149.532;2023-09-18T12:53:36;0;0;
60266;PMS5003;46125;61.360;-149.532;2023-09-18T12:56:05;0;0;
60266;PMS5003;46125;61.360;-149.532;2023-09-18T12:58:35;1;0;
60266;PMS5003;46125;61.360;-149.532;2023-09-18T13:01:04;0;0;
60266;PMS5003;46125;61.360;-149.532;2023-09-18T13:03:35;1;0;
60266;PMS5003;46125;61.360;-149.532;2023-09-18T13:06:09;0;0;
60266;PMS5003;46125;61.360;-149.532;2023-09-18T13:08:39;1;0;
60266;PMS5003;46125;61.360;-149.532;2023-09-18T13:11:08;0;0;
60266;PMS5003;46125;61.360;-149.532;2023-09-18T13:13:36;0;0;
60266;PMS5003;46125;61.360;-149.532;2023-09-18T13:16:05;1;0;
60266;PMS5003;46125;61.360;-149.532;2023-09-18T13:18:34;0;0;
60266;PMS5003;46125;61.360;-149.532;2023-09-18T13:21:09;0;0;
60266;PMS5003;46125;61.360;-149.532;2023-09-18T13:23:38;0;0;
60266;PMS5003;46125;61.360;-149.532;2023-09-18T13:26:07;0;0;
60266;PMS5003;46125;61.360;-149.532;2023-09-18T13:28:35;0;0;
60266;PMS5003;46125;61.360;-149.532;2023-09-18T13:31:05;0;0;
60266;PMS5003;46125;61.360;-149.532;2023-09-18T13:33:33;0;0;
60266;PMS5003;46125;61.360;-149.532;2023-09-18T13:36:05;0;0;
60266;PMS5003;46125;61.360;-149.532;2023-09-18T13:38:34;0;0;
60266;PMS5003;46125;61.360;-149.532;2023-09-18T13:41:02;0;0;
60266;PMS5003;46125;61.360;-149.532;2023-09-18T13:43:31;0;0;
60266;PMS5003;46125;61.360;-149.532;2023-09-18T13:45:59;0;0;
60266;PMS5003;46125;61.360;-149.532;2023-09-18T13:48:28;0;0;
60266;PMS5003;46125;61.360;-149.532;2023-09-18T13:50:56;0;0;
60266;PMS5003;46125;61.360;-149.532;2023-09-18T13:53:25;0;0;
60266;PMS5003;46125;61.360;-149.532;2023-09-18T13:55:53;0;0;
60266;PMS5003;46125;61.360;-149.532;2023-09-18T13:58:22;0;0;
60266;PMS5003;46125;61.360;-149.532;2023-09-18T14:00:50;1;0;
60266;PMS5003;46125;61.360;-149.532;2023-09-18T14:03:20;0;0;
60266;PMS5003;46125;61.360;-149.532;2023-09-18T14:05:48;0;0;
60266;PMS5003;46125;61.360;-149.532;2023-09-18T14:08:17;1;0;
60266;PMS5003;46125;61.360;-149.532;2023-09-18T14:10:45;0;0;
60266;PMS5003;46125;61.360;-149.532;2023-09-18T14:13:13;1;1;
60266;PMS5003;46125;61.360;-149.532;2023-09-18T14:15:42;1;0;
60266;PMS5003;46125;61.360;-149.532;2023-09-18T14:18:10;1;0;
60266;PMS5003;46125;61.360;-149.532;2023-09-18T14:20:39;0;0;
60266;PMS5003;46125;61.360;-149.532;2023-09-18T14:23:07;0;0;
60266;PMS5003;46125;61.360;-149.532;2023-09-18T14:25:36;1;1;
60266;PMS5003;46125;61.360;-149.532;2023-09-18T14:28:04;0;0;
60266;PMS5003;46125;61.360;-149.532;2023-09-18T14:30:33;0;0;
60266;PMS5003;46125;61.360;-149.532;2023-09-18T14:33:02;0;0;
60266;PMS5003;46125;61.360;-149.532;2023-09-18T14:35:31;0;0;
60266;PMS5003;46125;61.360;-149.532;2023-09-18T14:37:59;2;0;
60266;PMS5003;46125;61.360;-149.532;2023-09-18T14:40:28;1;1;
60266;PMS5003;46125;61.360;-149.532;2023-09-18T14:42:56;4;1;
60266;PMS5003;46125;61.360;-149.532;2023-09-18T14:45:25;0;0;
60266;PMS5003;46125;61.360;-149.532;2023-09-18T14:47:53;2;2;
60266;PMS5003;46125;61.360;-149.532;2023-09-18T14:50:22;2;1;
60266;PMS5003;46125;61.360;-149.532;2023-09-18T14:52:50;8;6;
60266;PMS5003;46125;61.360;-149.532;2023-09-18T14:55:18;12;8;
60266;PMS5003;46125;61.360;-149.532;2023-09-18T14:57:47;11;5;
60266;PMS5003;46125;61.360;-149.532;2023-09-18T15:00:15;5;3;
60266;PMS5003;46125;61.360;-149.532;2023-09-18T15:02:44;4;1;
60266;PMS5003;46125;61.360;-149.532;2023-09-18T15:05:12;3;0;
60266;PMS5003;46125;61.360;-149.532;2023-09-18T15:07:41;1;1;
60266;PMS5003;46125;61.360;-149.532;2023-09-18T15:10:10;2;1;
60266;PMS5003;46125;61.360;-149.532;2023-09-18T15:12:38;5;3;
60266;PMS5003;46125;61.360;-149.532;2023-09-18T15:15:06;2;1;
60266;PMS5003;46125;61.360;-149.532;2023-09-18T15:17:35;1;0;
60266;PMS5003;46125;61.360;-149.532;2023-09-18T15:20:04;4;3;
60266;PMS5003;46125;61.360;-149.532;2023-09-18T15:22:38;4;3;
60266;PMS5003;46125;61.360;-149.532;2023-09-18T15:25:07;1;1;
60266;PMS5003;46125;61.360;-149.532;2023-09-18T15:27:35;1;1;
60266;PMS5003;46125;61.360;-149.532;2023-09-18T15:30:04;2;1;
60266;PMS5003;46125;61.360;-149.532;2023-09-18T15:32:45;1;1;
60266;PMS5003;46125;61.360;-149.532;2023-09-18T15:35:16;2;0;
60266;PMS5003;46125;61.360;-149.532;2023-09-18T15:37:44;4;1;
60266;PMS5003;46125;61.360;-149.532;2023-09-18T15:40:13;1;0;
60266;PMS5003;46125;61.360;-149.532;2023-09-18T15:42:41;0;0;
60266;PMS5003;46125;61.360;-149.532;2023-09-18T15:45:09;0;0;
60266;PMS5003;46125;61.360;-149.532;2023-09-18T15:47:38;4;2;
60266;PMS5003;46125;61.360;-149.532;2023-09-18T15:50:08;1;1;
60266;PMS5003;46125;61.360;-149.532;2023-09-18T15:52:43;1;0;
60266;PMS5003;46125;61.360;-149.532;2023-09-18T15:55:12;0;0;
60266;PMS5003;46125;61.360;-149.532;2023-09-18T15:57:41;0;0;
60266;PMS5003;46125;61.360;-149.532;2023-09-18T16:00:11;2;0;
60266;PMS5003;46125;61.360;-149.532;2023-09-18T16:02:40;2;0;
60266;PMS5003;46125;61.360;-149.532;2023-09-18T16:05:09;6;2;
60266;PMS5003;46125;61.360;-149.532;2023-09-18T16:07:37;2;0;
60266;PMS5003;46125;61.360;-149.532;2023-09-18T16:10:07;4;2;
60266;PMS5003;46125;61.360;-149.532;2023-09-18T16:12:36;2;1;
60266;PMS5003;46125;61.360;-149.532;2023-09-18T16:15:05;1;1;
60266;PMS5003;46125;61.360;-149.532;2023-09-18T16:17:34;4;2;
60266;PMS5003;46125;61.360;-149.532;2023-09-18T16:20:02;1;1;